Time;durP1;ratioP1;P1;durP2;ratioP2;P2;SDS_P1;SDS_P2;PMS_P1;PMS_P2;Temp;Humidity;BMP_temperature;BMP_pressure;BME280_temperature;BME280_humidity;BME280_pressure;Samples;Min_cycle;Max_cycle;Signal;HPM_P1;HPM_P2
2023/05/15 00:00:14;;;;;;;36.65;22.10;;;12.60;99.90;;;;;;5062704;28;20028;-85
2023/05/15 00:02:40;;;;;;;34.63;20.92;;;12.70;99.90;;;;;;5062502;28;20032;-86
2023/05/15 00:05:07;;;;;;;39.88;23.42;;;12.70;99.90;;;;;;5054483;28;20500;-86
2023/05/15 00:07:33;;;;;;;32.97;21.33;;;12.70;99.90;;;;;;5069099;28;20081;-86
2023/05/15 00:09:59;;;;;;;37.85;21.00;;;12.70;99.90;;;;;;5064108;28;20384;-85
2023/05/15 00:12:25;;;;;;;34.03;19.75;;;12.70;99.90;;;;;;5076983;28;20025;-86
2023/05/15 00:14:51;;;;;;;36.65;21.02;;;12.70;99.90;;;;;;5048568;28;20028;-86
2023/05/15 00:17:16;;;;;;;33.15;19.92;;;12.70;99.90;;;;;;5093254;28;20591;-87
2023/05/15 00:19:42;;;;;;;37.03;21.10;;;12.70;99.90;;;;;;5067126;28;20490;-85
2023/05/15 00:22:07;;;;;;;33.60;20.00;;;12.70;99.90;;;;;;5080942;28;20047;-86
2023/05/15 00:24:33;;;;;;;33.75;20.13;;;12.70;99.90;;;;;;5080204;28;20030;-85
2023/05/15 00:27:00;;;;;;;27.85;18.58;;;12.70;99.90;;;;;;5084852;28;20040;-86
2023/05/15 00:29:26;;;;;;;28.02;17.60;;;12.70;99.90;;;;;;5084663;28;20487;-86
2023/05/15 00:31:52;;;;;;;27.85;16.80;;;12.70;99.90;;;;;;5083412;28;20055;-86
2023/05/15 00:34:17;;;;;;;26.20;16.33;;;12.70;99.90;;;;;;5060568;28;20295;-86
2023/05/15 00:36:43;;;;;;;21.35;14.73;;;12.80;99.90;;;;;;5077992;28;20032;-86
2023/05/15 00:39:09;;;;;;;21.98;15.75;;;12.80;99.90;;;;;;5080576;28;20464;-87
2023/05/15 00:41:36;;;;;;;23.30;15.57;;;12.80;99.90;;;;;;5089563;28;20578;-85
2023/05/15 00:44:02;;;;;;;24.50;16.60;;;12.80;99.90;;;;;;5071768;28;20139;-86
2023/05/15 00:46:31;;;;;;;19.55;13.63;;;12.80;99.90;;;;;;5076255;28;20094;-85
2023/05/15 00:48:57;;;;;;;16.95;11.65;;;12.90;99.90;;;;;;5067416;28;20040;-84
2023/05/15 00:51:23;;;;;;;14.40;10.20;;;12.90;99.90;;;;;;5080227;28;20085;-85
2023/05/15 00:53:53;;;;;;;15.10;9.57;;;12.90;99.90;;;;;;5080056;28;20059;-86
2023/05/15 00:56:20;;;;;;;14.13;8.70;;;12.90;99.90;;;;;;5057397;28;20053;-85
2023/05/15 00:58:47;;;;;;;9.48;7.20;;;12.90;99.90;;;;;;5085743;28;20060;-85
2023/05/15 01:01:14;;;;;;;8.88;7.30;;;12.90;99.90;;;;;;5051842;28;20028;-85
2023/05/15 01:03:44;;;;;;;9.65;6.13;;;12.90;99.90;;;;;;5061390;28;20269;-84
2023/05/15 01:06:10;;;;;;;9.07;5.38;;;12.90;99.90;;;;;;5058357;28;20141;-86
2023/05/15 01:08:57;;;;;;;8.65;5.90;;;12.90;99.90;;;;;;5080575;28;20028;-85
2023/05/15 01:11:26;;;;;;;7.10;5.88;;;12.90;99.90;;;;;;5057139;28;20431;-85
2023/05/15 01:13:52;;;;;;;7.30;5.63;;;12.90;99.90;;;;;;5084982;28;20028;-85
2023/05/15 01:16:21;;;;;;;8.00;5.90;;;12.90;99.90;;;;;;5064499;28;20532;-86
2023/05/15 01:18:47;;;;;;;6.05;4.88;;;12.90;99.90;;;;;;5061345;28;20407;-85
2023/05/15 01:21:26;;;;;;;6.13;4.65;;;12.90;99.90;;;;;;5055469;28;20028;-86
2023/05/15 01:24:10;;;;;;;6.38;4.57;;;13.00;99.90;;;;;;5052151;28;20502;-85
2023/05/15 01:26:44;;;;;;;8.35;4.53;;;13.00;99.90;;;;;;5061510;28;20561;-85
2023/05/15 01:29:35;;;;;;;6.55;4.45;;;13.00;99.90;;;;;;5054240;28;20029;-84
2023/05/15 01:32:08;;;;;;;5.85;4.25;;;13.00;99.90;;;;;;5050914;28;20055;-85
2023/05/15 01:34:52;;;;;;;7.13;4.20;;;13.00;99.90;;;;;;5089284;28;20051;-86
2023/05/15 01:37:23;;;;;;;6.25;4.13;;;13.00;99.90;;;;;;5097144;28;20435;-85
2023/05/15 01:39:52;;;;;;;;;;;13.00;99.90;;;;;;5054531;28;20327;-85
2023/05/15 01:42:20;;;;;;;6.50;4.22;;;13.00;99.90;;;;;;5090460;28;19912;-85
2023/05/15 01:45:05;;;;;;;4.97;3.83;;;13.10;99.90;;;;;;5050152;28;20029;-86
2023/05/15 01:47:36;;;;;;;4.13;3.67;;;13.10;99.90;;;;;;5057053;28;20045;-86
2023/05/15 01:50:04;;;;;;;5.68;4.28;;;13.10;99.90;;;;;;5072831;28;20024;-86
2023/05/15 01:52:35;;;;;;;5.97;4.60;;;13.10;99.90;;;;;;5065578;28;20024;-86
2023/05/15 01:55:01;;;;;;;;;;;13.00;99.90;;;;;;5088878;28;20051;-85
2023/05/15 01:57:28;;;;;;;4.88;3.50;;;13.00;99.90;;;;;;5067460;28;19915;-85
2023/05/15 01:59:54;;;;;;;4.47;3.95;;;13.10;99.90;;;;;;5073098;28;20503;-85
2023/05/15 02:02:22;;;;;;;5.32;4.20;;;13.10;99.90;;;;;;5058818;23;20052;-85
2023/05/15 02:05:13;;;;;;;5.38;4.55;;;13.00;99.90;;;;;;5060820;28;20028;-86
2023/05/15 02:07:42;;;;;;;7.38;4.07;;;13.00;99.90;;;;;;5063731;23;20463;-85
2023/05/15 02:10:10;;;;;;;5.05;4.22;;;13.00;99.90;;;;;;5048688;28;20037;-86
2023/05/15 02:12:37;;;;;;;5.28;3.88;;;13.00;99.90;;;;;;5056430;28;20033;-85
2023/05/15 02:15:03;;;;;;;5.43;3.75;;;13.00;99.90;;;;;;5057381;28;20040;-87
2023/05/15 02:17:29;;;;;;;7.35;3.50;;;13.00;99.90;;;;;;5058513;28;20048;-86
2023/05/15 02:19:55;;;;;;;5.35;3.95;;;13.00;99.90;;;;;;5056834;28;20415;-86
2023/05/15 02:22:20;;;;;;;5.63;4.30;;;13.00;99.90;;;;;;5095063;28;20361;-87
2023/05/15 02:24:46;;;;;;;10.07;4.65;;;12.90;99.90;;;;;;5064804;28;20041;-86
2023/05/15 02:27:23;;;;;;;9.68;5.10;;;12.90;99.90;;;;;;5060136;28;20040;-86
2023/05/15 02:30:13;;;;;;;5.35;4.38;;;13.00;99.90;;;;;;5059765;28;20036;-86
2023/05/15 02:33:11;;;;;;;5.20;3.85;;;13.00;99.90;;;;;;5055531;28;20123;-86
2023/05/15 02:35:47;;;;;;;7.85;4.10;;;13.00;99.90;;;;;;5052930;28;20025;-86
2023/05/15 02:38:21;;;;;;;5.32;3.80;;;13.00;99.90;;;;;;5055812;28;20496;-86
2023/05/15 02:40:48;;;;;;;5.18;3.88;;;13.00;99.90;;;;;;5068771;28;20032;-86
2023/05/15 02:43:16;;;;;;;4.22;3.60;;;13.00;99.90;;;;;;5060380;28;20027;-86
2023/05/15 02:45:44;;;;;;;5.90;3.67;;;13.00;99.90;;;;;;5048376;28;20090;-87
2023/05/15 02:48:11;;;;;;;4.15;3.20;;;13.00;99.90;;;;;;5048096;28;20059;-87
2023/05/15 02:50:37;;;;;;;4.43;3.90;;;13.00;99.90;;;;;;5060490;28;20093;-86
2023/05/15 02:53:07;;;;;;;5.60;4.13;;;13.00;99.90;;;;;;5057019;28;20059;-86
2023/05/15 02:55:33;;;;;;;6.47;4.47;;;13.00;99.90;;;;;;5057825;28;20033;-86
2023/05/15 02:57:59;;;;;;;5.70;3.55;;;13.00;99.90;;;;;;5071470;28;20060;-86
2023/05/15 03:00:25;;;;;;;4.97;3.78;;;13.00;99.90;;;;;;5054713;28;20087;-86
2023/05/15 03:02:50;;;;;;;5.28;3.63;;;12.90;99.90;;;;;;5052894;28;20052;-85
2023/05/15 03:05:16;;;;;;;6.40;3.67;;;12.90;99.90;;;;;;5053366;28;20036;-86
2023/05/15 03:07:41;;;;;;;6.75;3.20;;;12.90;99.90;;;;;;5057629;28;20053;-86
2023/05/15 03:10:07;;;;;;;4.00;2.80;;;12.90;99.90;;;;;;5054497;28;20036;-86
2023/05/15 03:12:33;;;;;;;4.47;3.60;;;12.90;99.90;;;;;;5060860;28;20090;-86
2023/05/15 03:15:00;;;;;;;4.03;3.40;;;12.90;99.90;;;;;;5060538;28;20555;-85
2023/05/15 03:17:25;;;;;;;3.40;3.10;;;12.90;99.90;;;;;;5056600;28;20021;-86
2023/05/15 03:19:51;;;;;;;3.45;3.10;;;12.90;99.90;;;;;;5057838;28;20439;-86
2023/05/15 03:22:17;;;;;;;5.00;3.50;;;12.90;99.90;;;;;;5061393;28;20025;-86
2023/05/15 03:24:42;;;;;;;5.20;3.50;;;12.90;99.90;;;;;;5056617;28;20043;-86
2023/05/15 03:27:08;;;;;;;4.10;3.30;;;12.90;99.90;;;;;;5054296;28;20068;-86
2023/05/15 03:29:33;;;;;;;4.22;3.38;;;12.90;99.90;;;;;;5055153;28;20033;-86
2023/05/15 03:31:59;;;;;;;4.40;3.10;;;12.80;99.90;;;;;;5059806;28;20040;-86
2023/05/15 03:34:24;;;;;;;3.67;3.10;;;12.80;99.90;;;;;;5058186;28;20523;-86
2023/05/15 03:36:50;;;;;;;4.10;3.70;;;12.80;99.90;;;;;;5074735;28;20122;-86
2023/05/15 03:39:16;;;;;;;5.03;3.50;;;12.70;99.90;;;;;;5079284;28;20198;-86
2023/05/15 03:41:41;;;;;;;5.05;3.67;;;12.70;99.90;;;;;;5047410;28;20021;-85
2023/05/15 03:44:07;;;;;;;4.80;3.58;;;12.70;99.90;;;;;;5057863;28;20266;-85
2023/05/15 03:46:32;;;;;;;3.42;3.08;;;12.70;99.90;;;;;;5045779;28;20578;-85
2023/05/15 03:48:58;;;;;;;3.33;2.95;;;12.70;99.90;;;;;;5080377;28;20024;-85
2023/05/15 03:51:23;;;;;;;5.20;3.53;;;12.70;99.90;;;;;;5070256;28;20052;-86
2023/05/15 03:53:49;;;;;;;4.53;3.33;;;12.70;99.90;;;;;;5064900;28;20031;-86
2023/05/15 03:56:15;;;;;;;4.22;3.30;;;12.70;99.90;;;;;;5051777;28;20020;-86
2023/05/15 03:58:40;;;;;;;6.72;3.50;;;12.70;99.90;;;;;;5049799;28;20381;-86
2023/05/15 04:01:06;;;;;;;4.05;3.30;;;12.70;99.90;;;;;;5042883;28;20561;-86
2023/05/15 04:03:32;;;;;;;6.55;3.38;;;12.70;99.90;;;;;;5057927;28;20472;-86
2023/05/15 04:05:58;;;;;;;4.13;3.40;;;12.70;99.90;;;;;;5066611;28;20043;-86
2023/05/15 04:08:23;;;;;;;3.40;2.97;;;12.70;99.90;;;;;;5062726;28;20074;-86
2023/05/15 04:10:49;;;;;;;4.40;3.08;;;12.70;99.90;;;;;;5056952;28;20086;-86
2023/05/15 04:13:15;;;;;;;6.05;3.70;;;12.70;99.90;;;;;;5064579;28;20066;-86
2023/05/15 04:15:41;;;;;;;6.60;3.30;;;12.70;99.90;;;;;;5052554;28;20123;-86
2023/05/15 04:18:06;;;;;;;4.53;3.15;;;12.80;99.90;;;;;;5063249;28;20123;-86
2023/05/15 04:20:32;;;;;;;4.07;3.15;;;12.80;99.90;;;;;;5050314;28;20037;-86
2023/05/15 04:22:58;;;;;;;3.85;3.10;;;12.80;99.90;;;;;;5056251;28;20021;-85
2023/05/15 04:25:24;;;;;;;4.70;3.15;;;12.90;99.90;;;;;;5048879;28;20400;-86
2023/05/15 04:27:50;;;;;;;7.45;3.00;;;12.90;99.90;;;;;;5059415;28;20036;-86
2023/05/15 04:30:16;;;;;;;3.53;3.13;;;12.90;99.90;;;;;;5053374;22;20016;-86
2023/05/15 04:32:42;;;;;;;3.35;2.78;;;13.00;99.90;;;;;;5063909;28;20100;-86
2023/05/15 04:35:09;;;;;;;3.83;2.80;;;13.00;99.90;;;;;;5037191;28;20033;-86
2023/05/15 04:37:40;;;;;;;5.80;3.15;;;13.00;99.90;;;;;;5055345;28;20239;-85
2023/05/15 04:40:07;;;;;;;;;;;13.10;99.90;;;;;;5054291;28;20051;-85
2023/05/15 04:42:33;;;;;;;3.55;2.60;;;13.00;99.90;;;;;;5049962;28;19912;-86
2023/05/15 04:44:59;;;;;;;5.57;3.45;;;13.00;99.90;;;;;;5059429;28;20456;-86
2023/05/15 04:47:24;;;;;;;4.15;3.33;;;13.00;99.90;;;;;;5063891;28;20182;-86
2023/05/15 04:49:50;;;;;;;5.05;3.15;;;13.00;99.90;;;;;;5048284;28;20127;-86
2023/05/15 04:52:16;;;;;;;6.45;3.20;;;13.00;99.90;;;;;;5061828;28;20121;-86
2023/05/15 04:54:42;;;;;;;4.20;3.17;;;13.00;99.90;;;;;;5062266;28;20046;-86
2023/05/15 04:57:07;;;;;;;4.03;2.92;;;13.10;99.90;;;;;;5055723;28;20119;-86
2023/05/15 04:59:33;;;;;;;4.45;2.85;;;13.20;99.90;;;;;;5061543;28;20032;-86
2023/05/15 05:01:59;;;;;;;6.18;2.83;;;13.30;99.90;;;;;;5047632;28;20024;-86
2023/05/15 05:04:25;;;;;;;4.97;2.97;;;13.30;99.90;;;;;;5043939;28;20119;-86
2023/05/15 05:06:50;;;;;;;4.47;2.65;;;13.40;99.90;;;;;;5063224;28;20365;-86
2023/05/15 05:09:17;;;;;;;3.35;2.78;;;13.40;99.90;;;;;;5057759;28;20033;-86
2023/05/15 05:11:43;;;;;;;4.35;2.90;;;13.40;99.90;;;;;;5063385;28;20036;-86
2023/05/15 05:14:15;;;;;;;4.47;2.63;;;13.40;99.90;;;;;;5058230;28;20033;-86
2023/05/15 05:16:44;;;;;;;5.85;2.92;;;13.50;99.90;;;;;;5050461;28;20408;-86
2023/05/15 05:19:09;;;;;;;4.38;2.90;;;13.60;99.90;;;;;;5053084;28;20037;-86
2023/05/15 05:21:35;;;;;;;4.18;2.97;;;13.50;99.90;;;;;;5047524;28;20380;-86
2023/05/15 05:24:00;;;;;;;11.15;3.20;;;13.60;99.90;;;;;;5069639;28;20086;-85
2023/05/15 05:26:26;;;;;;;4.93;2.95;;;13.50;99.90;;;;;;5048248;28;20081;-86
2023/05/15 05:28:52;;;;;;;6.15;3.83;;;13.40;99.90;;;;;;5058085;28;20036;-85
2023/05/15 05:31:18;;;;;;;5.57;3.38;;;13.30;99.90;;;;;;5036540;28;20696;-85
2023/05/15 05:33:43;;;;;;;5.22;3.60;;;13.30;99.90;;;;;;5056210;28;20491;-86
2023/05/15 05:36:09;;;;;;;5.35;3.40;;;13.30;99.90;;;;;;5064196;28;20028;-86
2023/05/15 05:38:35;;;;;;;3.92;3.35;;;13.40;99.90;;;;;;5060434;28;20033;-87
2023/05/15 05:41:02;;;;;;;3.75;3.30;;;13.40;99.90;;;;;;5050694;28;20035;-87
2023/05/15 05:43:27;;;;;;;5.35;3.15;;;13.40;99.90;;;;;;5055261;28;20029;-85
2023/05/15 05:45:53;;;;;;;4.70;3.47;;;13.30;99.90;;;;;;5065505;28;20047;-86
2023/05/15 05:48:19;;;;;;;6.20;3.25;;;13.40;99.90;;;;;;5050797;28;20381;-86
2023/05/15 05:50:45;;;;;;;4.75;3.10;;;13.60;99.90;;;;;;5063155;28;20028;-87
2023/05/15 05:53:10;;;;;;;5.75;3.50;;;13.50;99.90;;;;;;5067305;28;20478;-85
2023/05/15 05:55:36;;;;;;;4.63;3.10;;;13.70;99.90;;;;;;5058655;28;20130;-86
2023/05/15 05:58:02;;;;;;;5.65;3.35;;;13.80;99.90;;;;;;5052479;28;20256;-86
2023/05/15 06:00:28;;;;;;;3.40;3.10;;;13.90;99.90;;;;;;5055419;28;20032;-87
2023/05/15 06:02:58;;;;;;;4.50;3.38;;;13.80;99.90;;;;;;5055200;28;20032;-85
2023/05/15 06:05:24;;;;;;;4.63;2.97;;;13.90;99.90;;;;;;5068914;28;20039;-85
2023/05/15 06:07:51;;;;;;;7.20;4.95;;;13.90;99.90;;;;;;5065237;28;20050;-86
2023/05/15 06:10:17;;;;;;;50.20;24.55;;;13.90;99.90;;;;;;5062748;28;20021;-86
2023/05/15 06:12:44;;;;;;;6.80;3.75;;;13.90;99.90;;;;;;5062576;28;20258;-86
2023/05/15 06:15:10;;;;;;;8.38;3.20;;;13.90;99.90;;;;;;5056068;28;20521;-87
2023/05/15 06:17:36;;;;;;;3.78;2.67;;;13.90;99.90;;;;;;5057255;28;20028;-87
2023/05/15 06:20:06;;;;;;;6.88;3.00;;;14.00;99.90;;;;;;5055137;28;20024;-87
2023/05/15 06:22:32;;;;;;;4.53;2.67;;;13.90;99.90;;;;;;5066639;28;20036;-87
2023/05/15 06:24:57;;;;;;;5.82;3.67;;;13.90;99.90;;;;;;5054916;28;20029;-86
2023/05/15 06:27:26;;;;;;;10.68;5.28;;;13.80;99.90;;;;;;5054972;28;20048;-88
2023/05/15 06:29:52;;;;;;;6.72;2.90;;;13.80;99.90;;;;;;5088458;28;20028;-86
2023/05/15 06:32:17;;;;;;;5.13;2.60;;;13.70;99.90;;;;;;5058864;28;20098;-88
2023/05/15 06:34:43;;;;;;;5.70;2.80;;;13.70;99.90;;;;;;5060775;28;20167;-87
2023/05/15 06:37:09;;;;;;;4.28;2.50;;;13.90;99.90;;;;;;5051899;28;20040;-85
2023/05/15 06:39:35;;;;;;;6.68;2.80;;;14.10;99.90;;;;;;5033196;28;20032;-86
2023/05/15 06:42:01;;;;;;;6.28;2.40;;;14.30;99.90;;;;;;5060300;28;20151;-86
2023/05/15 06:44:27;;;;;;;5.93;3.20;;;14.60;99.90;;;;;;5059685;28;20139;-88
2023/05/15 06:46:53;;;;;;;8.10;2.22;;;14.90;99.90;;;;;;5067416;28;20036;-86
2023/05/15 06:49:19;;;;;;;9.13;2.25;;;14.80;99.90;;;;;;5054172;28;20040;-86
2023/05/15 06:51:44;;;;;;;5.63;1.65;;;14.60;99.90;;;;;;5050251;28;20028;-87
2023/05/15 06:54:11;;;;;;;5.28;2.05;;;14.40;99.90;;;;;;5059435;28;20029;-85
2023/05/15 06:56:37;;;;;;;262.48;120.55;;;14.40;99.90;;;;;;5055410;28;20088;-87
2023/05/15 06:59:07;;;;;;;7.35;2.90;;;14.50;99.90;;;;;;5051496;28;20024;-86
2023/05/15 07:01:33;;;;;;;6.78;1.85;;;14.40;99.90;;;;;;5052800;28;20070;-86
2023/05/15 07:03:59;;;;;;;3.08;1.40;;;14.30;99.90;;;;;;5052379;28;20562;-87
2023/05/15 07:06:25;;;;;;;5.00;1.50;;;14.20;99.90;;;;;;5049549;28;20037;-86
2023/05/15 07:08:51;;;;;;;4.50;1.50;;;14.10;99.90;;;;;;5055140;28;20083;-87
2023/05/15 07:11:16;;;;;;;3.65;1.80;;;13.90;99.90;;;;;;5068221;28;20440;-85
2023/05/15 07:13:42;;;;;;;3.65;1.77;;;13.80;99.90;;;;;;5061116;28;20025;-86
2023/05/15 07:16:07;;;;;;;5.50;1.70;;;13.80;99.90;;;;;;5061178;28;20092;-88
2023/05/15 07:18:33;;;;;;;9.82;1.85;;;13.70;99.90;;;;;;5057952;28;20064;-86
2023/05/15 07:20:59;;;;;;;4.88;1.63;;;13.80;99.90;;;;;;5060397;28;20025;-86
2023/05/15 07:23:24;;;;;;;6.47;1.52;;;13.90;99.90;;;;;;5056458;28;20792;-86
2023/05/15 07:25:53;;;;;;;6.68;1.73;;;14.30;99.90;;;;;;5056941;28;20028;-86
2023/05/15 07:28:18;;;;;;;2.90;1.05;;;14.60;99.90;;;;;;5048363;28;20101;-88
2023/05/15 07:30:44;;;;;;;4.70;1.25;;;14.70;99.90;;;;;;5051006;28;20044;-84
2023/05/15 07:33:10;;;;;;;4.97;1.10;;;14.80;99.90;;;;;;5059439;28;20047;-86
2023/05/15 07:35:35;;;;;;;8.55;1.42;;;15.00;99.90;;;;;;5086265;28;20036;-85
2023/05/15 07:38:01;;;;;;;7.75;1.58;;;15.30;98.10;;;;;;5056092;28;20017;-89
2023/05/15 07:40:26;;;;;;;4.15;1.30;;;15.50;98.30;;;;;;5065856;28;20535;-86
2023/05/15 07:42:52;;;;;;;2.83;1.10;;;15.80;97.30;;;;;;5064989;28;20108;-83
2023/05/15 07:45:18;;;;;;;5.57;1.15;;;16.10;92.20;;;;;;5060313;28;20029;-84
2023/05/15 07:47:48;;;;;;;3.78;1.10;;;16.20;89.50;;;;;;5060298;28;20127;-85
2023/05/15 07:50:14;;;;;;;8.13;1.30;;;16.40;90.30;;;;;;5048074;28;20035;-89
2023/05/15 07:52:40;;;;;;;5.18;1.33;;;16.50;86.30;;;;;;5057054;28;20028;-88
2023/05/15 07:55:06;;;;;;;3.75;1.30;;;16.70;93.60;;;;;;5068666;28;20077;-87
2023/05/15 07:57:31;;;;;;;5.80;1.23;;;17.40;92.90;;;;;;5062266;28;20035;-87
2023/05/15 07:59:57;;;;;;;7.68;1.52;;;17.50;91.10;;;;;;5052952;28;20036;-87
2023/05/15 08:02:23;;;;;;;8.48;1.50;;;17.40;91.50;;;;;;5067485;28;20530;-88
2023/05/15 08:04:48;;;;;;;5.68;1.20;;;17.30;90.40;;;;;;5038415;28;20097;-86
2023/05/15 08:07:14;;;;;;;6.10;1.23;;;16.70;89.90;;;;;;5053654;28;20044;-85
2023/05/15 08:09:41;;;;;;;6.18;1.42;;;16.70;90.80;;;;;;5055510;28;20036;-87
2023/05/15 08:12:19;;;;;;;7.57;1.40;;;16.80;88.70;;;;;;5056160;28;20039;-85
2023/05/15 08:14:53;;;;;;;9.02;1.67;;;17.30;92.00;;;;;;5050800;28;20029;-87
2023/05/15 08:17:20;;;;;;;10.00;1.20;;;17.80;90.10;;;;;;5055400;28;20028;-85
2023/05/15 08:19:46;;;;;;;6.60;1.42;;;18.80;71.70;;;;;;5049576;28;20122;-84
2023/05/15 08:22:12;;;;;;;4.63;1.10;;;20.30;59.10;;;;;;5050879;28;20033;-84
2023/05/15 08:24:50;;;;;;;3.40;0.80;;;22.10;49.10;;;;;;5071727;28;20327;-85
2023/05/15 08:27:15;;;;;;;5.40;0.93;;;23.60;43.60;;;;;;5068396;28;20037;-85
2023/05/15 08:29:41;;;;;;;6.63;0.93;;;23.80;42.00;;;;;;5056669;28;20029;-86
2023/05/15 08:32:08;;;;;;;4.85;1.10;;;24.30;39.80;;;;;;5074853;28;20048;-86
2023/05/15 08:34:39;;;;;;;7.13;1.20;;;24.50;40.40;;;;;;5060474;28;20039;-83
2023/05/15 08:37:05;;;;;;;4.07;0.80;;;24.90;40.70;;;;;;5050395;28;20028;-84
2023/05/15 08:39:31;;;;;;;7.20;1.02;;;24.70;37.50;;;;;;5053079;28;20021;-86
2023/05/15 08:42:07;;;;;;;3.97;0.80;;;24.10;38.40;;;;;;5052644;28;20029;-84
2023/05/15 08:44:32;;;;;;;2.40;0.88;;;24.90;39.60;;;;;;5056366;28;20040;-85
2023/05/15 08:47:00;;;;;;;3.25;1.00;;;26.00;34.00;;;;;;5067913;28;20107;-85
2023/05/15 08:50:03;;;;;;;3.15;0.90;;;28.10;34.80;;;;;;5058432;28;20028;-85
2023/05/15 08:52:31;;;;;;;4.63;1.10;;;29.80;31.60;;;;;;5066893;28;20029;-84
2023/05/15 08:54:58;;;;;;;2.63;0.80;;;28.90;29.70;;;;;;5065506;28;20138;-86
2023/05/15 08:57:24;;;;;;;5.18;1.58;;;27.20;30.80;;;;;;5057763;28;20025;-83
2023/05/15 09:00:13;;;;;;;6.00;2.00;;;27.00;32.30;;;;;;5046237;28;20123;-85
2023/05/15 09:02:53;;;;;;;30.30;13.23;;;26.20;32.80;;;;;;5046908;28;20049;-86
2023/05/15 09:05:19;;;;;;;25.70;11.05;;;26.70;35.50;;;;;;5058868;28;20036;-84
2023/05/15 09:07:46;;;;;;;18.35;6.25;;;26.80;30.20;;;;;;5062140;28;20044;-87
2023/05/15 09:10:12;;;;;;;8.90;3.45;;;26.30;33.00;;;;;;5055532;28;20404;-86
2023/05/15 09:12:43;;;;;;;18.17;6.00;;;26.90;34.30;;;;;;5063707;28;20043;-85
2023/05/15 09:15:20;;;;;;;17.80;6.57;;;26.60;33.40;;;;;;5051678;28;20017;-86
2023/05/15 09:17:46;;;;;;;21.55;8.30;;;25.20;32.80;;;;;;5064908;28;20051;-85
2023/05/15 09:20:35;;;;;;;19.30;5.50;;;24.80;34.80;;;;;;5063508;28;20108;-84
2023/05/15 09:23:03;;;;;;;11.30;3.40;;;24.70;32.40;;;;;;5058775;28;20033;-86
2023/05/15 09:25:33;;;;;;;10.85;3.28;;;23.80;36.60;;;;;;5058090;28;20033;-85
2023/05/15 09:27:59;;;;;;;8.90;1.55;;;23.40;38.10;;;;;;5062478;28;20033;-86
2023/05/15 09:30:29;;;;;;;5.57;1.58;;;22.90;36.50;;;;;;5055933;28;20025;-87
2023/05/15 09:33:00;;;;;;;5.50;1.30;;;23.60;39.30;;;;;;5057092;28;20032;-86
2023/05/15 09:35:32;;;;;;;4.63;1.10;;;23.60;38.20;;;;;;5057364;28;20021;-85
2023/05/15 09:37:59;;;;;;;4.32;1.05;;;24.00;35.10;;;;;;5062438;28;20097;-84
2023/05/15 09:40:28;;;;;;;7.95;1.67;;;26.00;32.20;;;;;;5065508;28;20032;-86
2023/05/15 09:42:54;;;;;;;8.55;1.38;;;27.60;33.00;;;;;;5056766;28;20035;-86
2023/05/15 09:45:19;;;;;;;8.18;1.20;;;29.50;31.50;;;;;;5059714;28;20028;-87
2023/05/15 09:47:46;;;;;;;4.38;1.05;;;29.80;29.70;;;;;;4712568;28;10000041;-87
2023/05/15 09:50:11;;;;;;;4.57;1.17;;;29.20;30.60;;;;;;5060617;28;20163;-88
2023/05/15 09:52:38;;;;;;;5.15;1.10;;;30.10;30.00;;;;;;5048731;28;20038;-87
2023/05/15 09:55:05;;;;;;;9.18;1.40;;;31.20;29.00;;;;;;5076080;28;20486;-83
2023/05/15 09:57:30;;;;;;;5.85;1.13;;;32.20;27.10;;;;;;5083300;28;20111;-88
2023/05/15 10:00:01;;;;;;;4.13;1.20;;;32.70;25.20;;;;;;5054683;28;20036;-85
2023/05/15 10:02:31;;;;;;;3.20;1.13;;;32.60;27.10;;;;;;5048084;28;20551;-89
2023/05/15 10:04:57;;;;;;;4.07;1.00;;;32.70;25.90;;;;;;5042308;28;21844;-88
2023/05/15 10:07:30;;;;;;;5.10;0.80;;;32.60;27.00;;;;;;5048113;28;20032;-88
2023/05/15 10:09:56;;;;;;;3.85;0.75;;;31.60;27.00;;;;;;5052528;28;20032;-84
2023/05/15 10:12:23;;;;;;;4.63;0.88;;;32.10;27.70;;;;;;5064589;28;20424;-87
2023/05/15 10:14:50;;;;;;;11.23;1.50;;;30.60;28.30;;;;;;5061407;28;20029;-90
2023/05/15 10:17:18;;;;;;;5.15;1.08;;;28.20;26.80;;;;;;5058472;28;20063;-86
2023/05/15 10:19:46;;;;;;;6.38;1.17;;;27.70;29.80;;;;;;5061141;28;20055;-89
2023/05/15 10:22:13;;;;;;;3.35;0.90;;;27.10;29.50;;;;;;5049908;28;20037;-85
2023/05/15 10:24:41;;;;;;;2.30;0.80;;;26.30;28.70;;;;;;5050474;28;20484;-87
2023/05/15 10:27:09;;;;;;;3.78;1.15;;;26.00;32.70;;;;;;5048541;28;20523;-87
2023/05/15 10:29:36;;;;;;;3.22;0.82;;;27.40;32.50;;;;;;5054400;28;20081;-82
2023/05/15 10:32:03;;;;;;;4.03;0.93;;;28.00;29.80;;;;;;5052189;28;20048;-89
2023/05/15 10:34:32;;;;;;;5.13;1.10;;;27.70;30.00;;;;;;5055912;28;20081;-87
2023/05/15 10:36:59;;;;;;;5.85;0.80;;;27.20;29.30;;;;;;5053441;28;20024;-88
2023/05/15 10:39:33;;;;;;;3.15;0.80;;;25.80;30.00;;;;;;5055593;28;20210;-87
2023/05/15 10:42:02;;;;;;;4.88;0.70;;;25.50;29.90;;;;;;5055016;28;20126;-86
2023/05/15 10:44:28;;;;;;;3.30;1.00;;;25.10;31.60;;;;;;5049341;28;20032;-88
2023/05/15 10:47:19;;;;;;;2.78;0.80;;;25.90;29.70;;;;;;5050062;28;20259;-86
2023/05/15 10:50:36;;;;;;;4.63;0.70;;;24.80;28.50;;;;;;5048301;28;20036;-87
2023/05/15 10:53:03;;;;;;;4.07;1.33;;;25.60;31.30;;;;;;5061076;28;20028;-86
2023/05/15 10:55:51;;;;;;;3.60;1.00;;;26.30;30.80;;;;;;5061235;28;20241;-87
2023/05/15 10:58:20;;;;;;;4.57;1.02;;;26.80;32.90;;;;;;5049553;28;20066;-87
2023/05/15 11:00:46;;;;;;;4.20;0.90;;;25.90;29.20;;;;;;5050520;28;20035;-86
2023/05/15 11:03:33;;;;;;;4.03;0.90;;;25.30;30.40;;;;;;5041568;28;20035;-85
2023/05/15 11:06:11;;;;;;;4.82;0.90;;;26.20;31.00;;;;;;5040205;28;20039;-85
2023/05/15 11:08:38;;;;;;;3.97;0.77;;;25.60;29.10;;;;;;5035317;28;20029;-88
2023/05/15 11:11:04;;;;;;;2.85;0.70;;;25.60;28.00;;;;;;5044572;28;20060;-86
2023/05/15 11:14:22;;;;;;;3.78;0.90;;;25.10;29.60;;;;;;5041027;28;20507;-87
2023/05/15 11:17:05;;;;;;;4.45;0.85;;;23.90;28.90;;;;;;5020767;28;20123;-88
2023/05/15 11:19:43;;;;;;;3.80;1.05;;;23.80;33.20;;;;;;5052550;28;20032;-88
2023/05/15 11:22:22;;;;;;;4.38;1.00;;;24.10;29.80;;;;;;5048435;28;20031;-83
2023/05/15 11:25:09;;;;;;;4.03;0.80;;;23.90;29.70;;;;;;5042374;28;20096;-88
2023/05/15 11:27:52;;;;;;;2.45;0.85;;;23.10;34.00;;;;;;5044968;28;20044;-86
2023/05/15 11:30:38;;;;;;;4.22;1.27;;;22.10;31.30;;;;;;5042285;28;20187;-87
2023/05/15 11:33:09;;;;;;;5.18;1.10;;;22.40;34.70;;;;;;5051295;28;20051;-87
2023/05/15 11:35:46;;;;;;;4.63;1.27;;;22.90;35.70;;;;;;5056895;28;20024;-85
2023/05/15 11:38:35;;;;;;;6.53;1.17;;;22.90;35.10;;;;;;5072067;28;20071;-88
2023/05/15 11:41:16;;;;;;;3.67;1.10;;;22.90;36.30;;;;;;5064589;28;20036;-87
2023/05/15 11:43:41;;;;;;;4.35;1.08;;;23.20;36.50;;;;;;5045851;28;20041;-89
2023/05/15 11:46:09;;;;;;;5.78;1.25;;;23.60;37.70;;;;;;5059684;28;20073;-87
2023/05/15 11:48:38;;;;;;;7.50;1.17;;;23.90;31.40;;;;;;5061337;28;20510;-84
2023/05/15 11:51:04;;;;;;;5.60;1.10;;;23.90;33.80;;;;;;5061142;28;20078;-87
2023/05/15 11:53:33;;;;;;;4.47;0.90;;;23.30;34.30;;;;;;5053522;28;20199;-86
2023/05/15 11:55:59;;;;;;;5.40;1.02;;;23.10;35.40;;;;;;5050102;28;20551;-86
2023/05/15 11:58:26;;;;;;;3.65;1.10;;;23.40;36.50;;;;;;5058974;28;20029;-86
2023/05/15 12:01:01;;;;;;;9.82;0.90;;;23.70;36.20;;;;;;5050494;28;20025;-87
2023/05/15 12:03:36;;;;;;;2.92;0.80;;;22.70;31.90;;;;;;5051899;28;20037;-88
2023/05/15 12:06:02;;;;;;;4.55;0.80;;;22.40;38.50;;;;;;5060045;28;20033;-84
2023/05/15 12:08:33;;;;;;;3.58;0.82;;;21.90;32.00;;;;;;5049034;28;20144;-85
2023/05/15 12:11:33;;;;;;;4.97;0.90;;;22.20;33.70;;;;;;5051895;28;20044;-83
2023/05/15 12:14:09;;;;;;;4.72;1.38;;;22.30;37.10;;;;;;5060504;28;20028;-87
2023/05/15 12:17:12;;;;;;;5.53;1.17;;;22.10;35.80;;;;;;5050601;28;20090;-86
2023/05/15 12:19:58;;;;;;;3.65;0.80;;;21.80;32.40;;;;;;5061984;28;20396;-87
2023/05/15 12:22:27;;;;;;;5.30;1.13;;;22.20;33.90;;;;;;5056141;28;20032;-85
2023/05/15 12:25:00;;;;;;;4.60;1.10;;;21.90;35.90;;;;;;5055421;28;20377;-86
2023/05/15 12:27:26;;;;;;;5.85;1.23;;;22.00;37.20;;;;;;5062096;28;20036;-83
2023/05/15 12:30:29;;;;;;;4.80;0.90;;;22.20;33.70;;;;;;5055700;28;20085;-85
2023/05/15 12:33:01;;;;;;;5.53;2.17;;;22.30;39.30;;;;;;5036093;28;20068;-82
2023/05/15 12:35:26;;;;;;;;;;;22.70;39.50;;;;;;5057032;28;20028;-85
2023/05/15 12:37:52;;;;;;;6.05;1.20;;;22.60;37.70;;;;;;5072865;28;19921;-83
2023/05/15 12:40:20;;;;;;;6.28;1.45;;;22.70;35.20;;;;;;5074021;28;20025;-84
2023/05/15 12:42:54;;;;;;;4.10;1.20;;;22.30;33.50;;;;;;5066595;28;20028;-83
2023/05/15 12:45:50;;;;;;;5.65;1.20;;;22.20;33.00;;;;;;5062118;28;20040;-83
2023/05/15 12:51:10;;;;;;;4.47;1.00;;;22.40;35.30;;;;;;5050272;28;20039;-83
2023/05/15 12:53:38;;;;;;;2.55;1.00;;;20.80;37.40;;;;;;5051187;28;20127;-86
2023/05/15 12:56:04;;;;;;;3.03;0.82;;;20.30;38.10;;;;;;5055734;28;20840;-88
2023/05/15 12:58:29;;;;;;;6.18;1.08;;;20.50;42.00;;;;;;5062470;28;20110;-86